Time;durP1;ratioP1;P1;durP2;ratioP2;P2;SDS_P1;SDS_P2;PMS_P1;PMS_P2;Temp;Humidity;BMP_temperature;BMP_pressure;BME280_temperature;BME280_humidity;BME280_pressure;Samples;Min_cycle;Max_cycle;Signal;HPM_P1;HPM_P2
2021/06/09 00:02:08;;;;;;;23.88;21.05;;;18.60;99.90;;;;;;5096573;28;20036;-62
2021/06/09 00:04:34;;;;;;;23.42;20.92;;;18.50;99.90;;;;;;5095809;28;20032;-62
2021/06/09 00:06:59;;;;;;;24.25;20.65;;;18.50;99.90;;;;;;5096998;28;20020;-62
2021/06/09 00:09:25;;;;;;;24.10;21.27;;;18.50;99.90;;;;;;5096844;28;20032;-63
2021/06/09 00:11:50;;;;;;;25.20;20.02;;;18.50;99.90;;;;;;5096770;28;20511;-62
2021/06/09 00:14:16;;;;;;;23.15;20.65;;;18.50;99.90;;;;;;5096940;28;20389;-62
2021/06/09 00:16:44;;;;;;;22.48;20.17;;;18.50;99.90;;;;;;5096480;28;20065;-62
2021/06/09 00:19:11;;;;;;;23.95;20.92;;;18.40;99.90;;;;;;5096241;28;20046;-63
2021/06/09 00:21:37;;;;;;;25.95;21.17;;;18.50;99.90;;;;;;5095941;28;20103;-62
2021/06/09 00:24:03;;;;;;;22.05;19.73;;;18.50;99.90;;;;;;5095712;28;20040;-63
2021/06/09 00:26:29;;;;;;;27.33;21.77;;;18.50;99.90;;;;;;5095958;28;20060;-62
2021/06/09 00:28:55;;;;;;;27.73;22.05;;;18.60;99.90;;;;;;5094363;28;20051;-63
2021/06/09 00:31:20;;;;;;;24.42;21.33;;;18.50;99.90;;;;;;5093895;28;20115;-63
2021/06/09 00:33:46;;;;;;;23.48;21.05;;;18.50;99.90;;;;;;5094104;28;20081;-63
2021/06/09 00:36:12;;;;;;;22.58;19.80;;;18.50;99.90;;;;;;5095567;28;20028;-63
2021/06/09 00:38:38;;;;;;;25.42;20.05;;;18.50;99.90;;;;;;5095386;28;20485;-63
2021/06/09 00:41:03;;;;;;;22.25;19.23;;;18.50;99.90;;;;;;5094919;28;20118;-63
2021/06/09 00:43:34;;;;;;;26.77;20.90;;;18.50;99.90;;;;;;5095111;28;20024;-63
2021/06/09 00:46:06;;;;;;;23.50;20.90;;;18.50;99.90;;;;;;5095041;28;20095;-63
2021/06/09 00:48:33;;;;;;;23.90;20.13;;;18.50;99.90;;;;;;5094586;28;20044;-62
2021/06/09 00:51:06;;;;;;;24.20;20.13;;;18.50;99.90;;;;;;5094330;28;20036;-63
2021/06/09 00:53:35;;;;;;;25.27;21.33;;;18.60;99.90;;;;;;5094352;28;20111;-62
2021/06/09 00:56:07;;;;;;;26.02;21.38;;;18.50;99.90;;;;;;5095202;28;20432;-62
2021/06/09 00:58:33;;;;;;;21.00;18.85;;;18.70;99.90;;;;;;5094354;28;20496;-62
2021/06/09 01:01:00;;;;;;;26.38;21.13;;;18.80;99.90;;;;;;5093180;28;20032;-63
2021/06/09 01:03:27;;;;;;;25.63;19.90;;;18.70;99.90;;;;;;5094301;28;20024;-61
2021/06/09 01:05:52;;;;;;;22.58;20.17;;;18.50;99.90;;;;;;5094233;28;20012;-62
2021/06/09 01:08:19;;;;;;;25.00;20.23;;;18.50;99.90;;;;;;5094500;28;20468;-61
2021/06/09 01:10:49;;;;;;;23.98;20.85;;;18.40;99.90;;;;;;5092571;28;20038;-62
2021/06/09 01:13:20;;;;;;;24.80;21.08;;;18.40;99.90;;;;;;5093863;28;20430;-62
2021/06/09 01:15:45;;;;;;;23.77;21.27;;;18.30;99.90;;;;;;5093675;28;20028;-62
2021/06/09 01:18:11;;;;;;;24.92;21.77;;;18.30;99.90;;;;;;5093994;28;20028;-63
2021/06/09 01:20:37;;;;;;;23.50;20.50;;;18.30;99.90;;;;;;5093664;28;20073;-62
2021/06/09 01:23:04;;;;;;;23.05;19.33;;;18.20;99.90;;;;;;5092290;28;20024;-62
2021/06/09 01:25:30;;;;;;;26.02;21.55;;;18.30;99.90;;;;;;5093698;28;20031;-63
2021/06/09 01:27:56;;;;;;;24.05;21.45;;;18.30;99.90;;;;;;5093668;28;20027;-63
2021/06/09 01:30:22;;;;;;;24.65;21.45;;;18.30;99.90;;;;;;5093665;28;20103;-62
2021/06/09 01:32:49;;;;;;;;;;;18.30;99.90;;;;;;5093299;28;20077;-62
2021/06/09 01:35:15;;;;;;;24.80;20.95;;;18.40;99.90;;;;;;5095891;28;19912;-60
2021/06/09 01:37:42;;;;;;;27.25;22.80;;;18.40;99.90;;;;;;5093532;28;20063;-64
2021/06/09 01:40:11;;;;;;;27.70;22.60;;;18.40;99.90;;;;;;5093414;28;20020;-62
2021/06/09 01:42:38;;;;;;;27.92;23.77;;;18.30;99.90;;;;;;5093415;28;20020;-62
2021/06/09 01:45:06;;;;;;;;;;;18.30;99.90;;;;;;5093796;28;20028;-62
2021/06/09 01:47:31;;;;;;;27.92;23.17;;;18.30;99.90;;;;;;5092039;28;20340;-62
2021/06/09 01:49:57;;;;;;;25.00;22.33;;;18.20;99.90;;;;;;5091764;28;20039;-62
2021/06/09 01:52:23;;;;;;;25.27;22.48;;;18.20;99.90;;;;;;5093692;28;20145;-64
2021/06/09 01:54:49;;;;;;;25.83;21.88;;;18.20;99.90;;;;;;5093450;28;20052;-62
2021/06/09 01:57:15;;;;;;;23.35;20.70;;;18.30;99.90;;;;;;5093253;28;20035;-62
2021/06/09 01:59:42;;;;;;;27.80;22.17;;;18.40;99.90;;;;;;5093080;28;20024;-62
2021/06/09 02:02:10;;;;;;;24.98;22.05;;;18.40;99.90;;;;;;5093198;28;20477;-62
2021/06/09 02:04:39;;;;;;;24.75;21.20;;;18.40;99.90;;;;;;5093104;28;20023;-63
2021/06/09 02:07:05;;;;;;;26.35;21.88;;;18.40;99.90;;;;;;5093186;28;20028;-63
2021/06/09 02:09:31;;;;;;;23.95;21.30;;;18.40;99.90;;;;;;5093135;28;20111;-65
2021/06/09 02:11:58;;;;;;;;;;;18.40;99.90;;;;;;5093558;28;20028;-64
2021/06/09 02:14:24;;;;;;;22.90;20.50;;;18.40;99.90;;;;;;5093533;28;20289;-64
2021/06/09 02:16:50;;;;;;;24.88;22.05;;;18.40;99.90;;;;;;5093045;28;20081;-65
2021/06/09 02:19:16;;;;;;;26.55;22.67;;;18.40;99.90;;;;;;5093313;28;20388;-65
2021/06/09 02:21:44;;;;;;;27.35;23.55;;;18.40;99.90;;;;;;5091827;28;20082;-64
2021/06/09 02:24:10;;;;;;;27.60;24.70;;;18.30;99.90;;;;;;5092983;28;20024;-64
2021/06/09 02:26:38;;;;;;;28.73;25.67;;;18.30;99.90;;;;;;5093227;28;20461;-65
2021/06/09 02:29:06;;;;;;;31.05;26.20;;;18.20;99.90;;;;;;5096587;28;20028;-65
2021/06/09 02:31:32;;;;;;;32.53;26.30;;;18.20;99.90;;;;;;5097346;28;20039;-65
2021/06/09 02:33:57;;;;;;;28.10;24.85;;;18.20;99.90;;;;;;5096996;28;20024;-65
2021/06/09 02:36:24;;;;;;;28.25;24.25;;;18.20;99.90;;;;;;5097042;28;20024;-65
2021/06/09 02:38:51;;;;;;;27.95;24.38;;;18.20;99.90;;;;;;5096839;28;20060;-65
2021/06/09 02:41:17;;;;;;;;;;;18.20;99.90;;;;;;5098142;28;20059;-65
2021/06/09 02:43:45;;;;;;;29.00;25.17;;;18.20;99.90;;;;;;5095917;28;19964;-65
2021/06/09 02:46:21;;;;;;;30.98;25.17;;;18.20;99.90;;;;;;5096711;28;20614;-65
2021/06/09 02:48:54;;;;;;;30.05;26.73;;;18.10;99.90;;;;;;5096955;28;20369;-65
2021/06/09 02:51:23;;;;;;;34.80;27.83;;;18.10;99.90;;;;;;5096809;28;20032;-65
2021/06/09 02:54:04;;;;;;;32.38;28.35;;;18.10;99.90;;;;;;5099336;28;20024;-65
2021/06/09 02:56:58;;;;;;;35.35;26.27;;;18.10;99.90;;;;;;5097224;28;20119;-65
2021/06/09 02:59:41;;;;;;;32.75;26.42;;;18.10;99.90;;;;;;5096447;28;20060;-65
2021/06/09 03:02:37;;;;;;;30.67;26.52;;;18.10;99.90;;;;;;5097206;28;20020;-65
2021/06/09 03:05:26;;;;;;;33.50;27.52;;;18.00;99.90;;;;;;5096580;28;20020;-65
2021/06/09 03:08:00;;;;;;;31.55;26.77;;;18.10;99.90;;;;;;5095297;28;20111;-64
2021/06/09 03:10:39;;;;;;;32.10;27.60;;;18.10;99.90;;;;;;5096254;28;20472;-63
2021/06/09 03:13:26;;;;;;;33.15;27.05;;;18.00;99.90;;;;;;5095081;28;20024;-65
2021/06/09 03:16:21;;;;;;;32.95;27.58;;;18.10;99.90;;;;;;5096645;28;20016;-65
2021/06/09 03:18:49;;;;;;;30.58;26.50;;;18.10;99.90;;;;;;5094058;28;20024;-65
2021/06/09 03:21:18;;;;;;;30.92;26.70;;;18.10;99.90;;;;;;5095986;28;20060;-64
2021/06/09 03:24:22;;;;;;;32.60;27.05;;;18.10;99.90;;;;;;5096370;28;20028;-64
2021/06/09 03:26:56;;;;;;;32.83;27.58;;;18.10;99.90;;;;;;5082253;28;20063;-64
2021/06/09 03:29:39;;;;;;;31.65;27.10;;;18.00;99.90;;;;;;5096543;28;20073;-65
2021/06/09 03:32:08;;;;;;;31.17;26.92;;;18.10;99.90;;;;;;5097070;28;20115;-65
2021/06/09 03:34:46;;;;;;;35.17;28.90;;;18.00;99.90;;;;;;5095874;28;20028;-65
2021/06/09 03:37:17;;;;;;;32.55;27.98;;;18.00;99.90;;;;;;5095886;28;20046;-65
2021/06/09 03:39:45;;;;;;;33.85;28.58;;;18.00;99.90;;;;;;5096393;28;20100;-65
2021/06/09 03:42:14;;;;;;;36.05;28.65;;;18.10;99.90;;;;;;5095663;28;20016;-65
2021/06/09 03:44:45;;;;;;;31.90;28.08;;;18.10;99.90;;;;;;5096392;28;20380;-65
2021/06/09 03:47:12;;;;;;;32.80;29.15;;;18.00;99.90;;;;;;5094371;28;20016;-65
2021/06/09 03:49:40;;;;;;;35.05;27.42;;;18.00;99.90;;;;;;5095312;28;20687;-65
2021/06/09 03:52:08;;;;;;;34.28;29.67;;;18.10;99.90;;;;;;5095421;28;20032;-65
2021/06/09 03:54:36;;;;;;;33.90;27.80;;;18.00;99.90;;;;;;5096124;28;20027;-65
2021/06/09 03:57:02;;;;;;;32.65;28.20;;;18.10;99.90;;;;;;5095403;28;20020;-65
2021/06/09 03:59:28;;;;;;;;;;;18.10;99.90;;;;;;5096262;28;20031;-65
2021/06/09 04:01:57;;;;;;;36.60;29.55;;;18.10;99.90;;;;;;5095673;28;19904;-65
2021/06/09 04:04:24;;;;;;;37.38;30.45;;;18.10;99.90;;;;;;5095559;28;20028;-65
2021/06/09 04:06:54;;;;;;;34.17;29.00;;;18.20;99.90;;;;;;5095340;28;20027;-65
2021/06/09 04:09:22;;;;;;;36.78;29.85;;;18.20;99.90;;;;;;5094980;28;20016;-65
2021/06/09 04:11:58;;;;;;;37.72;30.08;;;18.20;99.90;;;;;;5095105;28;20024;-66
2021/06/09 04:14:31;;;;;;;35.90;30.13;;;18.20;99.90;;;;;;5095203;28;20409;-65
2021/06/09 04:16:58;;;;;;;34.17;28.70;;;18.20;99.90;;;;;;5096037;28;20121;-66
2021/06/09 04:19:26;;;;;;;31.55;27.95;;;18.20;99.90;;;;;;5095055;28;20028;-65
2021/06/09 04:21:52;;;;;;;35.33;28.73;;;18.30;99.90;;;;;;5095361;28;20020;-65
2021/06/09 04:24:18;;;;;;;33.15;28.33;;;18.30;99.90;;;;;;5095153;28;20420;-65
2021/06/09 04:26:45;;;;;;;34.33;28.10;;;18.20;99.90;;;;;;5095433;28;20024;-65
2021/06/09 04:29:12;;;;;;;33.63;28.40;;;18.20;99.90;;;;;;5094947;28;20024;-66
2021/06/09 04:31:38;;;;;;;34.22;27.00;;;18.20;99.90;;;;;;5094874;28;20027;-65
2021/06/09 04:34:04;;;;;;;35.40;27.58;;;18.20;99.90;;;;;;5093594;28;20024;-65
2021/06/09 04:36:29;;;;;;;33.00;28.80;;;18.30;99.90;;;;;;5094674;28;20123;-65
2021/06/09 04:38:55;;;;;;;32.72;27.45;;;18.30;99.90;;;;;;5095094;28;20068;-64
2021/06/09 04:41:21;;;;;;;33.22;28.77;;;18.40;99.90;;;;;;5094934;28;20028;-64
2021/06/09 04:43:48;;;;;;;31.90;27.33;;;18.50;99.90;;;;;;5094461;28;20091;-65
2021/06/09 04:46:18;;;;;;;31.73;27.33;;;18.50;99.90;;;;;;5094466;28;20032;-64
2021/06/09 04:49:04;;;;;;;32.33;27.48;;;18.60;99.90;;;;;;5094553;28;20031;-65
2021/06/09 04:51:36;;;;;;;31.38;26.50;;;18.80;99.90;;;;;;5094372;28;20496;-64
2021/06/09 04:54:06;;;;;;;30.27;26.30;;;18.90;99.90;;;;;;5094625;28;20028;-64
2021/06/09 04:56:33;;;;;;;32.13;27.63;;;18.90;99.90;;;;;;5094651;28;20016;-64
2021/06/09 04:59:07;;;;;;;33.75;28.00;;;18.90;99.90;;;;;;5092930;28;20027;-65
2021/06/09 05:01:38;;;;;;;33.97;27.10;;;19.00;99.90;;;;;;5094330;28;20024;-64
2021/06/09 05:04:04;;;;;;;31.17;27.67;;;19.00;99.90;;;;;;5094190;28;20027;-65
2021/06/09 05:06:29;;;;;;;33.80;28.35;;;18.90;99.90;;;;;;5093001;28;20059;-64
2021/06/09 05:08:55;;;;;;;30.75;27.42;;;18.90;99.90;;;;;;5094153;28;20085;-63
2021/06/09 05:11:33;;;;;;;31.15;26.80;;;18.90;99.90;;;;;;5094278;28;20393;-63
2021/06/09 05:14:01;;;;;;;30.50;27.30;;;19.00;99.90;;;;;;5094247;28;20024;-63
2021/06/09 05:16:29;;;;;;;31.85;27.20;;;19.10;99.90;;;;;;5094789;28;20050;-65
2021/06/09 05:18:57;;;;;;;29.23;26.15;;;19.20;99.90;;;;;;5094402;28;20020;-63
2021/06/09 05:21:29;;;;;;;31.38;26.95;;;19.30;99.90;;;;;;5094550;28;20055;-64
2021/06/09 05:23:56;;;;;;;30.77;26.13;;;19.40;99.90;;;;;;5094172;28;20119;-64
2021/06/09 05:26:23;;;;;;;30.23;26.60;;;19.40;99.90;;;;;;5093856;28;20029;-64
2021/06/09 05:28:55;;;;;;;30.83;26.50;;;19.60;99.90;;;;;;5093844;28;20060;-65
2021/06/09 05:31:24;;;;;;;29.35;26.13;;;19.60;99.90;;;;;;5093623;28;20047;-64
2021/06/09 05:33:52;;;;;;;29.38;25.63;;;19.60;99.90;;;;;;5093810;28;20024;-63
2021/06/09 05:36:18;;;;;;;31.92;26.00;;;19.50;99.90;;;;;;5093901;28;20024;-63
2021/06/09 05:38:44;;;;;;;29.05;26.02;;;19.50;99.90;;;;;;5093724;28;20500;-63
2021/06/09 05:41:10;;;;;;;29.77;26.17;;;19.60;99.90;;;;;;5093285;28;20024;-63
2021/06/09 05:43:39;;;;;;;28.15;25.08;;;19.70;99.90;;;;;;5092476;28;20385;-62
2021/06/09 05:46:07;;;;;;;28.48;25.40;;;19.80;99.90;;;;;;5091896;28;20028;-62
2021/06/09 05:48:37;;;;;;;31.27;23.20;;;20.00;99.90;;;;;;5094009;28;20024;-65
2021/06/09 05:51:02;;;;;;;26.65;23.73;;;20.00;99.90;;;;;;5093193;28;20032;-63
2021/06/09 05:53:30;;;;;;;26.70;23.83;;;19.90;99.90;;;;;;5093556;28;20366;-63
2021/06/09 05:55:56;;;;;;;25.42;22.75;;;19.80;99.90;;;;;;5093723;28;20461;-63
2021/06/09 05:58:23;;;;;;;27.10;24.00;;;19.80;99.90;;;;;;5093275;28;20491;-63
2021/06/09 06:00:57;;;;;;;25.70;22.20;;;19.80;99.90;;;;;;5093223;28;20469;-63
2021/06/09 06:03:25;;;;;;;28.98;22.98;;;19.80;99.90;;;;;;5092621;28;20024;-63
2021/06/09 06:05:57;;;;;;;31.08;24.38;;;19.90;99.90;;;;;;5093768;28;20119;-63
2021/06/09 06:08:26;;;;;;;26.83;23.85;;;19.90;99.90;;;;;;5094309;28;20024;-63
2021/06/09 06:10:53;;;;;;;25.20;22.55;;;19.90;99.90;;;;;;5093952;28;20488;-64
2021/06/09 06:13:20;;;;;;;31.33;23.30;;;20.00;99.90;;;;;;5093575;28;20028;-64
2021/06/09 06:15:46;;;;;;;28.73;23.48;;;20.00;99.90;;;;;;5092997;28;20047;-64
2021/06/09 06:18:14;;;;;;;24.92;22.20;;;20.00;99.90;;;;;;5092868;28;20538;-64
2021/06/09 06:20:43;;;;;;;23.10;20.38;;;20.00;99.90;;;;;;5093258;28;20028;-64
2021/06/09 06:23:09;;;;;;;21.65;18.52;;;20.10;99.90;;;;;;5093718;28;20068;-64
2021/06/09 06:25:35;;;;;;;20.73;18.52;;;20.10;99.90;;;;;;5094493;28;20103;-64
2021/06/09 06:28:01;;;;;;;20.80;17.67;;;20.00;99.90;;;;;;5093094;28;20558;-64
2021/06/09 06:30:27;;;;;;;21.95;17.92;;;20.00;99.90;;;;;;5093490;28;20358;-63
2021/06/09 06:32:57;;;;;;;21.23;18.45;;;20.00;99.90;;;;;;5093329;28;20028;-64
2021/06/09 06:35:27;;;;;;;21.25;18.60;;;20.00;99.90;;;;;;5093384;28;20017;-63
2021/06/09 06:37:53;;;;;;;22.50;18.30;;;20.00;99.90;;;;;;5093389;28;20105;-62
2021/06/09 06:40:23;;;;;;;22.77;18.23;;;20.00;99.90;;;;;;5093090;28;20059;-63
2021/06/09 06:42:51;;;;;;;21.20;18.98;;;20.10;99.90;;;;;;5093373;28;20025;-64
2021/06/09 06:45:17;;;;;;;24.33;19.33;;;20.10;99.90;;;;;;5092968;28;20024;-64
2021/06/09 06:47:44;;;;;;;21.92;19.58;;;20.20;99.90;;;;;;5094077;28;20426;-64
2021/06/09 06:50:13;;;;;;;22.55;19.15;;;20.30;99.90;;;;;;5092963;28;20031;-64
2021/06/09 06:52:40;;;;;;;19.85;17.70;;;20.40;99.90;;;;;;5093139;28;20509;-64
2021/06/09 06:55:07;;;;;;;19.42;17.33;;;20.50;99.90;;;;;;5093085;28;20442;-64
2021/06/09 06:57:34;;;;;;;19.73;17.73;;;20.60;99.90;;;;;;5092739;28;20028;-63
2021/06/09 07:00:04;;;;;;;19.45;17.42;;;20.60;99.90;;;;;;5092502;28;20481;-64
2021/06/09 07:02:32;;;;;;;19.35;16.77;;;20.60;99.90;;;;;;5091759;28;20028;-64
2021/06/09 07:04:58;;;;;;;19.67;16.65;;;20.70;99.90;;;;;;5091498;28;20051;-63
2021/06/09 07:07:24;;;;;;;22.27;17.40;;;20.70;99.90;;;;;;5092564;28;20031;-63
2021/06/09 07:09:51;;;;;;;21.15;18.85;;;20.70;99.90;;;;;;5092913;28;20024;-61
2021/06/09 07:12:17;;;;;;;20.05;17.85;;;20.80;99.90;;;;;;5091664;28;20066;-63
2021/06/09 07:14:44;;;;;;;21.15;18.92;;;20.90;99.90;;;;;;5095499;28;20419;-65
2021/06/09 07:17:11;;;;;;;26.50;20.25;;;21.00;99.90;;;;;;5096767;28;20055;-64
2021/06/09 07:19:37;;;;;;;24.13;20.65;;;21.10;99.90;;;;;;5097352;28;20074;-64
2021/06/09 07:22:05;;;;;;;;;;;21.10;99.90;;;;;;5097049;28;20546;-64
2021/06/09 07:24:31;;;;;;;22.25;19.55;;;21.20;99.90;;;;;;5096422;28;19904;-63
2021/06/09 07:26:58;;;;;;;;;;;21.20;99.90;;;;;;5096708;28;20427;-63
2021/06/09 07:29:25;;;;;;;22.67;20.27;;;21.30;99.90;;;;;;5096194;28;20044;-64
2021/06/09 07:31:51;;;;;;;24.02;20.70;;;21.20;99.90;;;;;;5096206;28;20075;-64
2021/06/09 07:34:18;;;;;;;23.60;19.85;;;21.10;99.90;;;;;;5096335;28;20131;-64
2021/06/09 07:36:55;;;;;;;27.30;19.77;;;21.20;99.90;;;;;;5095030;28;20028;-64
2021/06/09 07:39:31;;;;;;;21.48;18.17;;;21.40;99.90;;;;;;5096498;28;20504;-64
2021/06/09 07:42:01;;;;;;;23.88;21.38;;;21.70;99.90;;;;;;5096939;28;20473;-64
2021/06/09 07:44:32;;;;;;;24.33;21.48;;;22.30;99.90;;;;;;5096312;28;20020;-64
2021/06/09 07:46:59;;;;;;;24.80;20.23;;;23.50;99.90;;;;;;5096247;28;20020;-64
2021/06/09 07:49:27;;;;;;;20.00;17.45;;;24.70;99.90;;;;;;5096035;28;20481;-64
2021/06/09 07:51:53;;;;;;;32.22;18.98;;;25.50;99.90;;;;;;5094698;28;20031;-64
2021/06/09 07:54:20;;;;;;;21.90;17.65;;;25.90;99.90;;;;;;5096026;28;20516;-64
2021/06/09 07:56:46;;;;;;;23.05;18.05;;;25.50;99.90;;;;;;5096201;28;20115;-64
2021/06/09 07:59:13;;;;;;;26.83;18.95;;;25.30;99.90;;;;;;5095779;28;20089;-64
2021/06/09 08:01:43;;;;;;;20.17;17.58;;;25.10;99.90;;;;;;5096050;28;20024;-64
2021/06/09 08:04:10;;;;;;;24.02;17.58;;;24.90;99.90;;;;;;5095739;28;20038;-64
2021/06/09 08:06:37;;;;;;;21.80;16.38;;;25.20;99.90;;;;;;5095523;28;20385;-64
2021/06/09 08:09:04;;;;;;;16.92;14.70;;;26.30;99.90;;;;;;5095897;28;20048;-65
2021/06/09 08:11:31;;;;;;;18.67;13.88;;;28.00;99.90;;;;;;5095248;28;20021;-64
2021/06/09 08:13:58;;;;;;;15.20;12.88;;;29.90;99.20;;;;;;5095272;28;20051;-64
2021/06/09 08:16:24;;;;;;;17.45;14.15;;;31.50;96.30;;;;;;5095133;28;20384;-64
2021/06/09 08:18:50;;;;;;;16.65;14.85;;;32.00;94.10;;;;;;5095342;28;20031;-64
2021/06/09 08:21:19;;;;;;;17.35;14.13;;;31.30;93.60;;;;;;5095326;28;20032;-64
2021/06/09 08:23:48;;;;;;;16.10;14.40;;;31.00;93.70;;;;;;5095419;28;20471;-64
2021/06/09 08:26:15;;;;;;;15.20;13.52;;;31.20;94.10;;;;;;5094560;28;20046;-64
2021/06/09 08:28:43;;;;;;;15.32;13.77;;;32.30;92.00;;;;;;5094885;28;20024;-64
2021/06/09 08:31:11;;;;;;;16.85;15.27;;;32.50;90.50;;;;;;5095374;28;20016;-64
2021/06/09 08:33:37;;;;;;;17.13;14.45;;;31.90;90.70;;;;;;5095156;28;20103;-63
2021/06/09 08:36:06;;;;;;;15.00;13.50;;;31.50;91.10;;;;;;5095084;28;20073;-64
2021/06/09 08:38:33;;;;;;;16.17;13.10;;;31.70;91.20;;;;;;5094382;28;20078;-65
2021/06/09 08:40:59;;;;;;;17.08;15.32;;;32.90;90.50;;;;;;5093527;28;20020;-63
2021/06/09 08:43:25;;;;;;;16.55;15.05;;;33.70;86.60;;;;;;5095804;28;20028;-63
2021/06/09 08:45:51;;;;;;;17.90;14.73;;;33.40;84.70;;;;;;5094911;28;20020;-65
2021/06/09 08:48:18;;;;;;;16.10;13.93;;;32.80;87.00;;;;;;5094884;28;20423;-64
2021/06/09 08:50:49;;;;;;;17.35;15.07;;;33.10;87.40;;;;;;5094531;28;20036;-65
2021/06/09 08:53:22;;;;;;;16.58;15.07;;;34.10;84.70;;;;;;5095262;28;20111;-64
2021/06/09 08:55:49;;;;;;;18.00;16.27;;;34.10;82.50;;;;;;5094570;28;20354;-64
2021/06/09 08:58:15;;;;;;;18.00;16.30;;;34.20;81.90;;;;;;5094304;28;20024;-64
2021/06/09 09:00:44;;;;;;;15.90;14.40;;;34.50;80.20;;;;;;5094457;28;20525;-64
2021/06/09 09:03:10;;;;;;;17.70;15.50;;;35.10;80.10;;;;;;5094583;28;20020;-68
2021/06/09 09:05:36;;;;;;;16.60;14.85;;;35.50;78.00;;;;;;5093778;28;20496;-64
2021/06/09 09:08:04;;;;;;;18.55;13.95;;;35.30;77.80;;;;;;5094310;28;20032;-64
2021/06/09 09:10:30;;;;;;;13.73;12.35;;;35.70;76.30;;;;;;5093907;28;20024;-65
2021/06/09 09:12:56;;;;;;;13.63;12.32;;;36.20;74.80;;;;;;5093946;28;20031;-65
2021/06/09 09:15:22;;;;;;;12.55;11.45;;;35.80;72.40;;;;;;5094016;28;20538;-64
2021/06/09 09:17:59;;;;;;;11.95;10.80;;;36.10;72.70;;;;;;5094269;28;20103;-65
2021/06/09 09:20:34;;;;;;;12.50;11.38;;;37.20;71.60;;;;;;5094312;28;20035;-64
2021/06/09 09:23:16;;;;;;;13.95;12.57;;;37.50;69.20;;;;;;5094561;28;20103;-64
2021/06/09 09:25:42;;;;;;;13.95;10.88;;;37.70;67.00;;;;;;5094819;28;20032;-65
2021/06/09 09:28:07;;;;;;;12.05;10.80;;;37.60;67.00;;;;;;5094310;28;20143;-65
2021/06/09 09:30:35;;;;;;;11.48;10.48;;;38.50;65.10;;;;;;5094563;28;20103;-65
2021/06/09 09:33:09;;;;;;;12.48;11.38;;;38.60;62.90;;;;;;5092522;28;20023;-64
2021/06/09 09:35:40;;;;;;;12.40;11.40;;;38.80;62.00;;;;;;5094110;28;20073;-66
2021/06/09 09:38:18;;;;;;;11.23;10.20;;;38.10;62.00;;;;;;5093580;28;20028;-64
2021/06/09 09:40:58;;;;;;;10.55;9.55;;;38.30;62.40;;;;;;5094056;28;20047;-65
2021/06/09 09:43:43;;;;;;;11.90;10.90;;;39.20;60.90;;;;;;5093497;28;20107;-65
2021/06/09 09:46:12;;;;;;;14.13;12.45;;;39.40;59.30;;;;;;5093880;28;20021;-64
2021/06/09 09:48:40;;;;;;;9.88;9.05;;;39.30;58.70;;;;;;5093485;28;20020;-65
2021/06/09 09:51:06;;;;;;;9.65;8.75;;;39.40;58.90;;;;;;5093447;28;20024;-65
2021/06/09 09:53:32;;;;;;;9.88;9.07;;;40.10;57.90;;;;;;5093790;28;20050;-65
2021/06/09 09:56:03;;;;;;;10.20;9.30;;;40.30;55.60;;;;;;5093760;28;20031;-65
2021/06/09 09:58:30;;;;;;;8.95;8.25;;;40.20;56.20;;;;;;5093626;28;20024;-65
2021/06/09 10:01:18;;;;;;;9.70;8.80;;;40.20;55.30;;;;;;5093293;28;20446;-65
2021/06/09 10:03:46;;;;;;;10.48;9.52;;;40.10;55.70;;;;;;5093258;28;20017;-65
2021/06/09 10:06:27;;;;;;;10.23;9.43;;;40.30;55.30;;;;;;5093252;28;20028;-65
2021/06/09 10:08:55;;;;;;;8.27;7.65;;;40.70;54.20;;;;;;5093137;28;20509;-64
2021/06/09 10:11:23;;;;;;;10.15;9.15;;;41.00;53.00;;;;;;5093418;28;20460;-64
2021/06/09 10:13:49;;;;;;;10.48;9.23;;;40.20;53.80;;;;;;5093359;28;20048;-64
2021/06/09 10:16:24;;;;;;;8.55;7.72;;;39.60;53.90;;;;;;5093518;28;20063;-65
2021/06/09 10:19:00;;;;;;;9.05;8.15;;;38.90;53.80;;;;;;5093186;28;20028;-64
2021/06/09 10:21:26;;;;;;;10.32;9.40;;;37.70;55.30;;;;;;5093477;28;20081;-63
2021/06/09 10:23:58;;;;;;;8.98;8.10;;;37.00;56.50;;;;;;5093008;28;20549;-64
2021/06/09 10:26:24;;;;;;;9.60;8.80;;;37.20;56.80;;;;;;5093038;28;20107;-64
2021/06/09 10:28:59;;;;;;;10.52;8.57;;;38.00;56.30;;;;;;5092919;28;20449;-64
2021/06/09 10:31:31;;;;;;;10.68;9.68;;;38.20;56.00;;;;;;5092783;28;20366;-64
2021/06/09 10:33:57;;;;;;;9.88;8.90;;;38.00;55.70;;;;;;5091388;28;20117;-64
2021/06/09 10:36:26;;;;;;;10.18;9.20;;;37.80;56.50;;;;;;5093204;28;20038;-64
2021/06/09 10:38:53;;;;;;;9.93;8.93;;;37.50;55.50;;;;;;5092932;28;20028;-64
2021/06/09 10:41:23;;;;;;;8.45;7.28;;;37.70;55.60;;;;;;5092508;28;20522;-64
2021/06/09 10:43:53;;;;;;;8.18;7.38;;;38.00;55.00;;;;;;5093072;28;20469;-64
2021/06/09 10:46:24;;;;;;;6.80;6.20;;;38.20;54.10;;;;;;5093042;28;20024;-65
2021/06/09 10:48:54;;;;;;;6.70;6.20;;;38.70;52.60;;;;;;5092468;28;20028;-65
2021/06/09 10:51:20;;;;;;;9.60;8.70;;;38.70;52.50;;;;;;5096717;28;20036;-65
2021/06/09 10:53:46;;;;;;;9.23;8.32;;;39.20;52.10;;;;;;5096623;28;20176;-64
2021/06/09 10:56:15;;;;;;;8.90;8.10;;;38.70;53.40;;;;;;5096672;28;20466;-64
2021/06/09 10:58:42;;;;;;;7.45;6.65;;;37.60;54.40;;;;;;5096645;28;20084;-65
2021/06/09 11:01:07;;;;;;;8.50;7.47;;;35.70;55.40;;;;;;5096715;28;20012;-64
2021/06/09 11:03:37;;;;;;;8.57;7.25;;;34.60;57.10;;;;;;5096613;28;20020;-63
2021/06/09 11:06:04;;;;;;;8.23;7.32;;;33.40;58.10;;;;;;5096618;28;20040;-64
2021/06/09 11:08:30;;;;;;;7.97;7.28;;;32.80;59.90;;;;;;5096561;28;20046;-63
2021/06/09 11:10:57;;;;;;;10.45;8.65;;;32.00;61.90;;;;;;5095099;28;20035;-64
2021/06/09 11:13:30;;;;;;;9.18;8.38;;;31.40;64.20;;;;;;5097080;28;20093;-64
2021/06/09 11:16:14;;;;;;;9.82;8.82;;;30.80;66.60;;;;;;5097043;28;20450;-64
2021/06/09 11:18:42;;;;;;;9.75;8.23;;;30.10;66.20;;;;;;5096647;28;20024;-64
2021/06/09 11:21:11;;;;;;;8.68;7.88;;;29.60;68.40;;;;;;5097077;28;20477;-64
2021/06/09 11:23:40;;;;;;;8.73;7.72;;;29.30;70.30;;;;;;5096673;28;20539;-64
2021/06/09 11:26:07;;;;;;;8.50;7.70;;;28.80;70.70;;;;;;5097184;28;20069;-63
2021/06/09 11:28:33;;;;;;;8.35;7.55;;;28.60;72.00;;;;;;5096573;28;20028;-63
2021/06/09 11:31:00;;;;;;;9.30;8.13;;;28.40;72.60;;;;;;5096415;28;20103;-63
2021/06/09 11:33:34;;;;;;;9.07;8.18;;;28.10;73.70;;;;;;5096914;28;20032;-64
2021/06/09 11:36:28;;;;;;;11.32;8.95;;;28.10;75.30;;;;;;5096847;28;20020;-65
2021/06/09 11:39:06;;;;;;;9.80;8.60;;;27.90;76.20;;;;;;5090562;28;20095;-64
2021/06/09 11:41:40;;;;;;;9.73;8.73;;;27.70;77.70;;;;;;5096043;28;20066;-64
2021/06/09 11:44:25;;;;;;;8.07;7.28;;;27.50;77.30;;;;;;5096370;28;20029;-64
2021/06/09 11:46:51;;;;;;;8.77;7.97;;;27.50;78.10;;;;;;5096140;28;20377;-63
2021/06/09 11:49:24;;;;;;;10.15;8.77;;;27.40;78.30;;;;;;5095923;28;20028;-63
2021/06/09 11:52:02;;;;;;;9.82;8.82;;;27.30;79.20;;;;;;5096113;28;20135;-64
2021/06/09 11:54:35;;;;;;;10.43;9.35;;;27.20;80.00;;;;;;5095963;28;20063;-64
2021/06/09 11:57:21;;;;;;;10.45;9.27;;;27.10;81.60;;;;;;5096258;28;20024;-63
2021/06/09 11:59:50;;;;;;;12.48;10.65;;;27.00;82.20;;;;;;5094174;28;20043;-65
2021/06/09 12:02:24;;;;;;;12.00;8.40;;;26.90;82.80;;;;;;5095397;28;20057;-64
2021/06/09 12:04:51;;;;;;;11.25;9.07;;;26.80;83.30;;;;;;5095842;28;20140;-64
2021/06/09 12:07:26;;;;;;;10.55;9.35;;;26.80;84.50;;;;;;5095875;28;20028;-64
2021/06/09 12:09:59;;;;;;;10.85;9.75;;;26.80;85.00;;;;;;5095421;28;20481;-64
2021/06/09 12:12:29;;;;;;;12.73;10.75;;;26.80;86.00;;;;;;5095932;28;20381;-64
2021/06/09 12:15:00;;;;;;;12.82;10.80;;;26.90;87.70;;;;;;5095632;28;20020;-64
2021/06/09 12:17:34;;;;;;;11.90;10.55;;;26.90;88.20;;;;;;5095787;28;20024;-65
2021/06/09 12:20:11;;;;;;;11.82;10.63;;;26.90;89.40;;;;;;5093667;28;20034;-64
2021/06/09 12:22:47;;;;;;;13.68;12.27;;;26.80;90.50;;;;;;5095183;28;20031;-64
2021/06/09 12:25:24;;;;;;;14.57;11.32;;;26.80;90.70;;;;;;5095464;28;20020;-64
2021/06/09 12:28:03;;;;;;;15.07;13.57;;;26.80;91.00;;;;;;5095547;28;20024;-65
2021/06/09 12:30:29;;;;;;;14.13;12.80;;;26.70;91.30;;;;;;5095023;28;20024;-65
2021/06/09 12:32:54;;;;;;;16.98;15.18;;;26.70;92.00;;;;;;5095003;28;20028;-64
2021/06/09 12:35:22;;;;;;;14.18;12.68;;;26.70;92.50;;;;;;5095219;28;20020;-63
2021/06/09 12:37:52;;;;;;;14.45;12.95;;;26.70;92.90;;;;;;5094837;28;20477;-64
2021/06/09 12:40:20;;;;;;;14.93;13.05;;;26.70;93.50;;;;;;5094453;28;20028;-64
2021/06/09 12:42:54;;;;;;;14.85;13.45;;;26.60;92.70;;;;;;5094353;28;20020;-64
2021/06/09 12:45:23;;;;;;;16.20;14.40;;;26.20;93.10;;;;;;5095127;28;20112;-65